createdAt,value
2023-05-04T13:49:55.662Z,23.37
2023-05-04T13:52:24.847Z,23.33
2023-05-04T13:54:53.105Z,23.85
2023-05-04T13:57:20.332Z,24.18
2023-05-04T14:00:02.466Z,23.73
2023-05-04T14:02:33.503Z,23.77
2023-05-04T14:05:03.710Z,23.91
2023-05-04T14:07:31.107Z,23.69
2023-05-04T14:09:58.914Z,23.99
2023-05-04T14:12:27.061Z,23.93
2023-05-04T14:14:54.164Z,24.27
2023-05-04T14:17:21.151Z,24.46
2023-05-04T14:19:48.729Z,24.22
2023-05-04T14:22:15.845Z,24.82
2023-05-04T14:24:42.864Z,25.47
2023-05-04T14:27:09.849Z,25.03
2023-05-04T14:29:36.989Z,25.32
2023-05-04T14:32:03.992Z,25.78
2023-05-04T14:34:32.269Z,25.79
2023-05-04T14:36:59.346Z,25.46
2023-05-04T14:39:26.307Z,25.21
2023-05-04T14:41:53.547Z,25.13
2023-05-04T14:44:22.169Z,25.02
2023-05-04T14:46:49.301Z,25.01
2023-05-04T14:49:24.946Z,25.49
2023-05-04T14:52:02.342Z,25.94
2023-05-04T14:54:29.235Z,26.16
2023-05-04T14:56:56.205Z,26.18
2023-05-04T14:59:23.617Z,26.36
2023-05-04T15:01:51.711Z,26.82
2023-05-04T15:04:18.699Z,26.81
2023-05-04T15:06:46.381Z,26.84
2023-05-04T15:09:13.361Z,27.22
2023-05-04T15:11:40.768Z,26.94
2023-05-04T15:14:07.979Z,27.41
2023-05-04T15:16:35.171Z,27.66
2023-05-04T15:19:02.415Z,27.66
2023-05-04T15:21:29.329Z,27.70
2023-05-04T15:23:56.274Z,27.59
2023-05-04T15:26:23.628Z,27.88
2023-05-04T15:28:52.642Z,28.13
2023-05-04T15:31:22.257Z,27.24
2023-05-04T15:33:50.210Z,27.15
2023-05-04T15:36:17.551Z,28.02
2023-05-04T15:38:44.914Z,27.96
2023-05-04T15:41:13.694Z,28.31
2023-05-04T15:43:41.061Z,28.34
2023-05-04T15:46:08.055Z,28.36
2023-05-04T15:48:35.227Z,28.28
2023-05-04T15:51:02.330Z,28.47
2023-05-04T15:53:29.420Z,28.71
2023-05-04T15:55:56.459Z,29.05
2023-05-04T15:58:23.431Z,28.35
2023-05-04T16:00:54.495Z,28.28
2023-05-04T16:03:23.257Z,28.91
2023-05-04T16:05:51.410Z,29.24
2023-05-04T16:08:19.392Z,29.13
2023-05-04T16:10:47.120Z,30.23
2023-05-04T16:13:16.771Z,29.22
2023-05-04T16:15:44.842Z,29.56
2023-05-04T16:18:12.158Z,29.72
2023-05-04T16:20:39.299Z,29.49
2023-05-04T16:23:06.490Z,29.08
2023-05-04T16:25:33.979Z,28.66
2023-05-04T16:28:01.212Z,29.58
2023-05-04T16:30:33.618Z,29.41
2023-05-04T16:33:05.164Z,29.91
2023-05-04T16:35:36.898Z,30.26
2023-05-04T16:38:04.811Z,30.30
2023-05-04T16:40:33.791Z,29.90
2023-05-04T16:43:07.560Z,29.58
2023-05-04T16:45:35.229Z,29.54
2023-05-04T16:48:03.219Z,29.81
2023-05-04T16:50:32.146Z,30.29
2023-05-04T16:53:01.138Z,30.67
2023-05-04T16:55:31.365Z,31.07
2023-05-04T16:58:00.380Z,30.80
2023-05-04T17:00:28.933Z,30.68
2023-05-04T17:02:56.522Z,31.01
2023-05-04T17:05:24.005Z,30.83
2023-05-04T17:07:54.249Z,31.28
2023-05-04T17:10:25.382Z,31.25
2023-05-04T17:12:59.714Z,31.06
2023-05-04T17:15:32.525Z,31.44
2023-05-04T17:18:02.891Z,31.88
2023-05-04T17:20:31.671Z,32.13
2023-05-04T17:23:00.747Z,32.04
2023-05-04T17:25:28.383Z,32.11
2023-05-04T17:27:55.955Z,32.60
2023-05-04T17:30:24.345Z,32.48
2023-05-04T17:32:56.550Z,32.52
2023-05-04T17:35:26.470Z,33.45
2023-05-04T17:37:58.445Z,34.16
2023-05-04T17:44:39.170Z,35.19
2023-05-04T17:47:06.370Z,36.39
2023-05-04T17:49:34.063Z,36.52
2023-05-04T17:52:01.133Z,36.87
2023-05-04T17:54:28.367Z,37.25
2023-05-04T17:56:55.678Z,36.66
2023-05-04T17:59:22.836Z,37.13
2023-05-04T18:01:52.959Z,37.16
2023-05-04T18:04:20.199Z,36.81
2023-05-04T18:06:56.540Z,36.75
2023-05-04T18:09:23.626Z,36.89
2023-05-04T18:11:51.434Z,37.02
2023-05-04T18:14:18.685Z,37.09
2023-05-04T18:16:45.801Z,37.25
2023-05-04T18:19:12.784Z,37.65
2023-05-04T18:21:42.364Z,37.70
2023-05-04T18:24:09.565Z,38.02
2023-05-04T18:34:02.603Z,38.18
2023-05-04T18:36:36.739Z,38.21
2023-05-04T18:39:05.118Z,38.46
2023-05-04T18:41:37.303Z,38.55
2023-05-04T18:44:07.121Z,38.61
2023-05-04T18:46:38.144Z,38.81
2023-05-04T18:49:06.585Z,39.06
2023-05-04T18:51:35.573Z,39.37
2023-05-04T18:54:02.908Z,39.62
2023-05-04T18:56:33.290Z,39.57
2023-05-04T18:59:18.252Z,40.06
2023-05-04T19:01:53.530Z,40.88
2023-05-04T19:04:24.571Z,41.11
2023-05-04T19:06:53.221Z,41.24
2023-05-04T19:09:26.549Z,41.48
2023-05-04T19:12:00.008Z,41.60
2023-05-04T19:14:41.256Z,41.72
2023-05-04T19:17:11.676Z,41.97
2023-05-04T19:19:39.781Z,42.10
2023-05-04T19:22:14.306Z,42.19
2023-05-04T19:24:43.181Z,42.31
2023-05-04T19:27:10.263Z,42.36
2023-05-04T19:29:38.305Z,42.66
2023-05-04T19:32:19.740Z,42.73
2023-05-04T19:34:53.339Z,42.86
2023-05-04T19:37:20.754Z,43.13
2023-05-04T19:39:51.549Z,43.10
2023-05-04T19:42:19.571Z,43.20
2023-05-04T19:44:47.436Z,43.20
2023-05-04T19:47:14.779Z,43.64
2023-05-04T19:53:56.081Z,43.81
2023-05-04T19:56:23.778Z,43.67
2023-05-04T19:58:52.526Z,43.84
2023-05-04T20:01:25.941Z,44.10
2023-05-04T20:03:55.142Z,43.94
2023-05-04T20:06:22.621Z,44.31
2023-05-04T20:08:50.050Z,44.30
2023-05-04T20:11:17.230Z,44.23
2023-05-04T20:13:44.279Z,44.46
2023-05-04T20:16:13.945Z,44.34
2023-05-04T20:18:54.413Z,44.26
2023-05-04T20:21:32.066Z,44.47
2023-05-04T20:24:00.272Z,44.70
2023-05-04T20:26:28.044Z,44.76
2023-05-04T20:28:56.175Z,44.73
2023-05-04T20:31:24.643Z,44.86
2023-05-04T20:33:52.262Z,45.03
2023-05-04T20:36:19.633Z,44.94
2023-05-04T20:38:47.028Z,45.07
2023-05-04T20:41:17.660Z,45.12
2023-05-04T20:43:45.468Z,44.93
2023-05-04T20:46:13.930Z,45.11
2023-05-04T20:48:41.867Z,45.52
2023-05-04T20:51:14.542Z,45.85
2023-05-04T20:53:44.001Z,45.96
2023-05-04T20:56:12.511Z,46.13
2023-05-04T20:58:40.447Z,46.19
2023-05-04T21:01:11.525Z,46.25
2023-05-04T21:03:39.048Z,46.54
2023-05-04T21:06:07.058Z,46.59
2023-05-04T21:08:35.023Z,46.71
2023-05-04T21:11:03.106Z,46.55
2023-05-04T21:13:31.294Z,46.91
2023-05-04T21:16:01.677Z,46.91
2023-05-04T21:18:30.063Z,47.07
2023-05-04T21:20:58.174Z,47.18
2023-05-04T21:23:26.229Z,47.44
2023-05-04T21:26:02.167Z,47.62
2023-05-04T21:28:29.991Z,47.69
2023-05-04T21:30:57.631Z,47.84
2023-05-04T21:33:25.129Z,48.20
2023-05-04T21:35:52.396Z,48.55
2023-05-04T21:38:21.969Z,48.67
2023-05-04T21:40:50.247Z,48.88
2023-05-04T21:43:17.443Z,48.94
2023-05-04T21:45:44.780Z,49.37
2023-05-04T21:48:13.347Z,49.49
2023-05-04T21:50:42.905Z,49.81
2023-05-04T21:53:12.770Z,50.15
2023-05-04T21:55:42.981Z,50.53
2023-05-04T21:58:13.115Z,50.52
2023-05-04T22:00:54.542Z,50.92
2023-05-04T22:03:28.185Z,51.05
2023-05-04T22:06:01.145Z,51.21
2023-05-04T22:08:29.918Z,51.61
2023-05-04T22:11:00.153Z,51.71
2023-05-04T22:13:30.038Z,51.53
2023-05-04T22:16:02.870Z,51.47
2023-05-04T22:22:57.034Z,51.74
2023-05-04T22:25:26.088Z,51.94
2023-05-04T22:27:55.983Z,52.17
2023-05-04T22:30:29.104Z,52.43
2023-05-04T22:32:58.820Z,52.47
2023-05-04T22:35:29.130Z,52.32
2023-05-04T22:37:58.877Z,52.36
2023-05-04T22:40:28.056Z,52.56
2023-05-04T22:42:58.389Z,52.62
2023-05-04T22:45:29.299Z,52.77
2023-05-04T22:53:55.189Z,53.28
2023-05-04T22:56:23.503Z,53.15
2023-05-04T22:58:51.813Z,53.34
2023-05-04T23:01:20.184Z,53.62
2023-05-04T23:03:49.102Z,53.89
2023-05-04T23:06:17.530Z,53.95
2023-05-04T23:08:46.063Z,54.15
2023-05-04T23:11:14.492Z,54.20
2023-05-04T23:13:42.809Z,54.10
2023-05-04T23:16:11.166Z,54.29
2023-05-04T23:18:39.505Z,54.74
2023-05-04T23:21:07.747Z,54.72
2023-05-04T23:23:36.239Z,54.80
2023-05-04T23:26:04.922Z,54.98
2023-05-04T23:28:33.298Z,54.89
2023-05-04T23:31:02.752Z,55.16
2023-05-04T23:33:31.186Z,55.08
2023-05-04T23:35:59.639Z,55.13
2023-05-04T23:38:28.378Z,55.16
2023-05-04T23:40:57.263Z,54.73
2023-05-04T23:43:25.578Z,54.80
2023-05-04T23:46:00.587Z,54.71
2023-05-04T23:48:29.773Z,54.71
2023-05-04T23:50:59.187Z,54.74
2023-05-04T23:53:27.990Z,54.79
2023-05-04T23:55:58.157Z,54.61
2023-05-04T23:58:27.450Z,54.66
